createdAt,value
2023-02-19T00:00:29.669Z,8.01
2023-02-19T00:02:56.771Z,8.19
2023-02-19T00:05:23.976Z,8.57
2023-02-19T00:07:50.672Z,8.25
2023-02-19T00:10:17.813Z,8.50
2023-02-19T00:12:45.073Z,8.30
2023-02-19T00:15:11.763Z,8.38
2023-02-19T00:17:38.846Z,8.16
2023-02-19T00:20:05.817Z,8.47
2023-02-19T00:22:32.578Z,7.33
2023-02-19T00:24:59.292Z,7.37
2023-02-19T00:27:25.987Z,7.53
2023-02-19T00:29:53.154Z,7.57
2023-02-19T00:32:19.851Z,7.13
2023-02-19T00:34:46.542Z,7.47
2023-02-19T00:37:13.229Z,7.78
2023-02-19T00:39:39.952Z,7.62
2023-02-19T00:42:07.235Z,7.53
2023-02-19T00:44:34.236Z,7.53
2023-02-19T00:47:00.930Z,7.30
2023-02-19T00:49:29.494Z,7.14
2023-02-19T00:51:56.214Z,7.18
2023-02-19T00:54:23.047Z,7.00
2023-02-19T00:56:49.902Z,7.15
2023-02-19T00:59:16.651Z,7.21
2023-02-19T01:01:43.668Z,7.13
2023-02-19T01:04:10.430Z,7.46
2023-02-19T01:06:37.549Z,7.80
2023-02-19T01:09:05.258Z,7.82
2023-02-19T01:11:32.341Z,7.30
2023-02-19T01:13:59.748Z,7.38
2023-02-19T01:16:26.826Z,7.12
2023-02-19T01:18:53.880Z,7.26
2023-02-19T01:21:22.397Z,7.36
2023-02-19T01:23:52.004Z,6.68
2023-02-19T01:26:40.444Z,6.48
2023-02-19T01:29:07.164Z,6.51
2023-02-19T01:31:34.387Z,6.87
2023-02-19T01:34:03.027Z,6.50
2023-02-19T01:36:30.677Z,6.25
2023-02-19T01:38:59.762Z,6.09
2023-02-19T01:41:26.503Z,5.96
2023-02-19T01:44:00.574Z,5.94
2023-02-19T01:46:32.621Z,5.80
2023-02-19T01:49:02.609Z,5.71
2023-02-19T01:51:29.366Z,5.46
2023-02-19T01:53:57.299Z,5.57
2023-02-19T01:56:24.494Z,5.87
2023-02-19T01:58:53.468Z,5.67
2023-02-19T02:01:20.236Z,5.62
2023-02-19T02:03:47.302Z,5.55
2023-02-19T02:06:22.021Z,5.73
2023-02-19T02:08:51.756Z,5.47
2023-02-19T02:11:18.822Z,5.46
2023-02-19T02:13:48.573Z,5.49
2023-02-19T02:16:42.126Z,5.61
2023-02-19T02:19:21.079Z,5.58
2023-02-19T02:22:01.697Z,5.65
2023-02-19T02:25:19.541Z,5.38
2023-02-19T02:28:14.080Z,5.67
2023-02-19T02:30:52.515Z,5.48
2023-02-19T02:33:42.266Z,5.21
2023-02-19T02:36:13.163Z,5.30
2023-02-19T02:38:41.885Z,5.37
2023-02-19T02:41:09.117Z,5.29
2023-02-19T02:43:37.538Z,5.06
2023-02-19T02:46:04.279Z,5.01
2023-02-19T02:48:49.067Z,4.93
2023-02-19T02:51:33.580Z,5.02
2023-02-19T02:54:15.070Z,5.03
2023-02-19T02:56:41.861Z,4.98
2023-02-19T02:59:09.861Z,4.97
2023-02-19T03:02:04.444Z,4.86
2023-02-19T03:04:53.914Z,4.96
2023-02-19T03:07:20.638Z,4.84
2023-02-19T03:09:49.688Z,4.95
2023-02-19T03:12:16.445Z,4.83
2023-02-19T03:14:48.442Z,4.98
2023-02-19T03:17:27.612Z,4.88
2023-02-19T03:19:56.222Z,4.74
2023-02-19T03:22:30.280Z,4.76
2023-02-19T03:25:21.982Z,4.66
2023-02-19T03:27:49.190Z,4.77
2023-02-19T03:30:21.113Z,4.89
2023-02-19T03:33:05.984Z,4.84
2023-02-19T03:35:33.326Z,5.01
2023-02-19T03:38:30.303Z,4.68
2023-02-19T03:41:02.950Z,4.67
2023-02-19T03:43:46.762Z,5.01
2023-02-19T03:46:26.318Z,4.81
2023-02-19T03:48:58.979Z,4.56
2023-02-19T03:51:39.184Z,4.45
2023-02-19T03:54:13.657Z,4.76
2023-02-19T03:56:52.298Z,4.72
2023-02-19T03:59:47.389Z,4.60
2023-02-19T04:02:16.499Z,4.52
2023-02-19T04:04:50.156Z,4.76
2023-02-19T04:07:16.891Z,4.77
2023-02-19T04:09:45.534Z,4.97
2023-02-19T04:12:12.229Z,5.13
2023-02-19T04:15:03.453Z,5.00
2023-02-19T04:17:36.058Z,5.06
2023-02-19T04:20:03.928Z,5.02
2023-02-19T04:22:30.673Z,5.15
2023-02-19T04:25:00.383Z,5.54
2023-02-19T04:27:27.071Z,5.67
2023-02-19T04:29:54.135Z,5.64
2023-02-19T04:32:20.860Z,5.81
2023-02-19T04:34:47.554Z,5.56
2023-02-19T04:37:14.293Z,5.47
2023-02-19T04:39:40.989Z,5.71
2023-02-19T04:42:07.836Z,5.61
2023-02-19T04:44:35.212Z,5.70
2023-02-19T04:47:02.094Z,5.96
2023-02-19T04:49:29.443Z,6.21
2023-02-19T04:51:56.141Z,6.35
2023-02-19T04:54:23.953Z,6.37
2023-02-19T04:56:50.666Z,6.15
2023-02-19T04:59:17.368Z,6.34
2023-02-19T05:01:45.169Z,6.39
2023-02-19T05:04:11.904Z,6.28
2023-02-19T05:06:41.660Z,6.68
2023-02-19T05:09:08.669Z,7.05
2023-02-19T05:11:35.517Z,6.74
2023-02-19T05:14:02.237Z,6.47
2023-02-19T05:16:28.924Z,6.64
2023-02-19T05:18:58.755Z,6.42
2023-02-19T05:21:28.439Z,6.36
2023-02-19T05:23:55.529Z,6.44
2023-02-19T05:26:22.798Z,6.72
2023-02-19T05:28:53.099Z,7.15
2023-02-19T05:31:20.113Z,6.74
2023-02-19T05:33:46.912Z,6.86
2023-02-19T05:36:13.782Z,6.28
2023-02-19T05:38:40.947Z,5.81
2023-02-19T05:41:18.292Z,6.36
2023-02-19T05:43:45.990Z,6.60
2023-02-19T05:46:13.945Z,6.03
2023-02-19T05:48:41.871Z,5.47
2023-02-19T05:51:13.320Z,5.42
2023-02-19T05:53:40.153Z,5.52
2023-02-19T05:56:35.894Z,5.47
2023-02-19T05:59:17.490Z,5.84
2023-02-19T06:01:44.517Z,5.96
2023-02-19T06:04:11.419Z,6.00
2023-02-19T06:06:38.217Z,5.45
2023-02-19T06:09:05.338Z,5.16
2023-02-19T06:11:32.142Z,5.26
2023-02-19T06:13:59.336Z,5.12
2023-02-19T06:16:27.613Z,5.13
2023-02-19T06:18:57.097Z,5.13
2023-02-19T06:21:28.910Z,5.45
2023-02-19T06:23:55.635Z,5.58
2023-02-19T06:26:23.787Z,5.48
2023-02-19T06:28:51.216Z,5.35
2023-02-19T06:31:18.838Z,5.81
2023-02-19T06:33:45.586Z,5.46
2023-02-19T06:36:16.181Z,5.36
2023-02-19T06:38:43.045Z,5.36
2023-02-19T06:41:10.526Z,5.73
2023-02-19T06:43:38.044Z,5.90
2023-02-19T06:46:06.255Z,6.09
2023-02-19T06:48:34.246Z,6.17
2023-02-19T06:51:01.981Z,6.50
2023-02-19T06:53:29.357Z,6.38
2023-02-19T06:56:00.251Z,6.47
2023-02-19T06:58:27.089Z,6.48
2023-02-19T07:00:53.814Z,6.78
2023-02-19T07:03:23.569Z,6.41
2023-02-19T07:05:53.011Z,6.46
2023-02-19T07:08:22.579Z,6.64
2023-02-19T07:10:56.102Z,6.40
2023-02-19T07:13:26.201Z,6.38
2023-02-19T07:15:57.833Z,6.36
2023-02-19T07:18:30.387Z,6.54
2023-02-19T07:21:12.368Z,6.59
2023-02-19T07:23:39.672Z,6.59
2023-02-19T07:26:12.622Z,6.75
2023-02-19T07:28:43.748Z,6.99
2023-02-19T07:31:11.661Z,7.70
2023-02-19T07:33:39.068Z,7.04
2023-02-19T07:36:28.809Z,6.87
2023-02-19T07:38:59.289Z,7.11
2023-02-19T07:41:26.328Z,7.23
2023-02-19T07:43:53.485Z,7.51
2023-02-19T07:46:20.616Z,8.20
2023-02-19T07:48:48.257Z,8.02
2023-02-19T07:51:16.223Z,8.32
2023-02-19T07:53:43.439Z,8.62
2023-02-19T07:56:12.385Z,8.93
2023-02-19T07:58:39.243Z,9.13
2023-02-19T08:01:10.295Z,9.70
2023-02-19T08:03:38.130Z,8.98
2023-02-19T08:06:05.247Z,7.88
2023-02-19T08:08:32.363Z,7.96
2023-02-19T08:11:03.529Z,8.26
2023-02-19T08:13:30.628Z,8.05
2023-02-19T08:16:36.711Z,8.28
2023-02-19T08:19:05.502Z,8.57
2023-02-19T08:21:34.302Z,9.03
2023-02-19T08:24:01.586Z,9.29
2023-02-19T08:26:28.427Z,9.40
2023-02-19T08:28:55.247Z,9.44
2023-02-19T08:31:24.992Z,9.93
2023-02-19T08:33:56.896Z,10.26
2023-02-19T08:36:24.133Z,10.88
2023-02-19T08:38:51.916Z,10.01
2023-02-19T08:41:19.006Z,10.45
2023-02-19T08:43:46.930Z,10.63
2023-02-19T08:46:13.673Z,10.34
2023-02-19T08:48:40.506Z,10.20
2023-02-19T08:51:10.440Z,10.43
2023-02-19T08:53:38.076Z,10.79
2023-02-19T08:56:12.834Z,10.57
2023-02-19T08:58:40.963Z,10.92
2023-02-19T09:01:12.090Z,11.07
2023-02-19T09:03:39.514Z,11.34
2023-02-19T09:06:16.357Z,10.86
2023-02-19T09:08:43.093Z,11.14
2023-02-19T09:11:10.388Z,9.95
2023-02-19T09:13:37.457Z,9.74
2023-02-19T09:16:05.612Z,9.90
2023-02-19T09:18:35.445Z,9.99
2023-02-19T09:21:06.317Z,9.58
2023-02-19T09:23:35.449Z,9.58
2023-02-19T09:26:02.417Z,9.96
2023-02-19T09:28:31.002Z,9.46
2023-02-19T09:30:57.839Z,9.37
2023-02-19T09:33:30.572Z,9.70
2023-02-19T09:36:00.116Z,10.42
2023-02-19T09:38:27.239Z,10.55
2023-02-19T09:40:57.532Z,10.39
2023-02-19T09:43:24.638Z,10.60
2023-02-19T09:46:04.798Z,11.38
2023-02-19T09:48:32.627Z,10.88
2023-02-19T09:50:59.770Z,11.36
2023-02-19T09:53:30.387Z,11.00
2023-02-19T09:55:57.098Z,11.17
2023-02-19T09:58:35.373Z,10.07
2023-02-19T10:01:06.282Z,10.76
2023-02-19T10:03:38.723Z,11.33
2023-02-19T10:06:09.429Z,11.53
2023-02-19T10:08:39.429Z,11.82
2023-02-19T10:11:06.154Z,12.21
2023-02-19T10:13:37.705Z,11.95
2023-02-19T10:16:05.960Z,12.23
2023-02-19T10:18:39.803Z,12.06
2023-02-19T10:21:07.581Z,11.86
2023-02-19T10:23:34.713Z,12.88
2023-02-19T10:26:02.152Z,12.83
2023-02-19T10:28:30.310Z,12.34
2023-02-19T10:30:59.449Z,12.59
2023-02-19T10:33:26.802Z,12.68
2023-02-19T10:36:05.505Z,12.47
2023-02-19T10:38:39.317Z,12.25
2023-02-19T10:41:19.579Z,12.49
2023-02-19T10:44:00.374Z,12.44
2023-02-19T10:46:31.937Z,12.01
2023-02-19T10:49:02.100Z,12.77
2023-02-19T10:51:32.248Z,12.37
2023-02-19T10:54:26.814Z,12.71
2023-02-19T10:56:53.611Z,12.86
2023-02-19T10:59:32.194Z,13.18
2023-02-19T11:02:03.494Z,13.33
2023-02-19T11:04:31.400Z,13.00
2023-02-19T11:07:10.489Z,12.53
2023-02-19T11:09:44.500Z,12.65
2023-02-19T11:12:13.259Z,12.78
2023-02-19T11:14:44.735Z,13.16
2023-02-19T11:17:49.848Z,13.17
2023-02-19T11:20:25.174Z,12.17
2023-02-19T11:22:52.352Z,12.44
2023-02-19T11:25:27.637Z,12.38
2023-02-19T11:28:17.045Z,13.00
2023-02-19T11:30:44.412Z,13.19
2023-02-19T11:33:43.994Z,13.04
2023-02-19T11:36:30.409Z,13.86
2023-02-19T11:38:58.786Z,14.02
2023-02-19T11:42:03.753Z,13.59
2023-02-19T11:44:49.353Z,13.25
2023-02-19T11:47:41.682Z,13.01
2023-02-19T11:50:49.921Z,13.65
2023-02-19T11:53:29.285Z,13.52
2023-02-19T11:56:23.817Z,14.14
2023-02-19T11:59:23.810Z,13.95
2023-02-19T12:02:24.594Z,14.02
2023-02-19T12:05:21.319Z,13.95
2023-02-19T12:08:09.317Z,13.90
2023-02-19T12:11:09.403Z,14.30
2023-02-19T12:13:57.920Z,14.32
2023-02-19T12:16:30.615Z,13.83
2023-02-19T12:19:00.340Z,13.99
2023-02-19T12:21:32.912Z,13.77
2023-02-19T12:24:32.565Z,13.93
2023-02-19T12:27:26.625Z,14.02
2023-02-19T12:30:09.223Z,14.43
2023-02-19T12:33:00.289Z,14.47
2023-02-19T12:35:52.582Z,14.24
2023-02-19T12:38:27.459Z,14.19
2023-02-19T12:41:07.190Z,14.46
2023-02-19T12:43:37.571Z,14.58
2023-02-19T12:46:12.806Z,14.79
2023-02-19T12:49:19.169Z,15.13
2023-02-19T12:51:52.828Z,14.95
2023-02-19T12:54:48.325Z,15.17
2023-02-19T12:57:24.273Z,15.06
2023-02-19T13:00:36.938Z,15.20
2023-02-19T13:03:25.735Z,15.26
2023-02-19T13:06:19.862Z,15.03
2023-02-19T13:09:06.341Z,15.48
2023-02-19T13:11:45.356Z,15.69
2023-02-19T13:14:42.109Z,15.11
2023-02-19T13:17:33.978Z,15.48
2023-02-19T13:20:14.385Z,15.16
2023-02-19T13:23:02.139Z,15.03
2023-02-19T13:25:59.624Z,14.96
2023-02-19T13:29:10.845Z,15.52
2023-02-19T13:32:20.767Z,15.56
2023-02-19T13:35:01.763Z,15.80
2023-02-19T13:37:29.932Z,15.90
2023-02-19T13:39:56.637Z,16.72
2023-02-19T13:42:34.536Z,16.95
2023-02-19T13:45:05.236Z,16.76
2023-02-19T13:48:09.510Z,17.10
2023-02-19T13:50:36.730Z,16.77
2023-02-19T13:53:42.434Z,17.09
2023-02-19T13:56:31.890Z,16.37
2023-02-19T13:59:15.529Z,16.62
2023-02-19T14:02:12.781Z,16.60
2023-02-19T14:04:47.604Z,16.31
2023-02-19T14:07:14.716Z,16.80
2023-02-19T14:09:41.305Z,16.52
2023-02-19T14:12:07.913Z,16.31
2023-02-19T14:14:53.536Z,16.16
2023-02-19T14:17:33.628Z,16.04
2023-02-19T14:20:09.890Z,16.73
2023-02-19T14:22:49.064Z,16.00
2023-02-19T14:25:36.828Z,15.75
2023-02-19T14:28:18.794Z,15.62
2023-02-19T14:31:02.893Z,15.71
2023-02-19T14:33:43.165Z,16.35
2023-02-19T14:36:33.369Z,16.42
2023-02-19T14:39:04.697Z,15.57
2023-02-19T14:41:33.159Z,15.57
2023-02-19T14:44:00.297Z,15.51
2023-02-19T14:46:37.865Z,15.23
2023-02-19T14:49:24.367Z,15.45
2023-02-19T14:52:01.337Z,15.61
2023-02-19T14:54:56.995Z,15.68
2023-02-19T14:57:26.666Z,15.37
2023-02-19T14:59:56.594Z,15.32
2023-02-19T15:02:27.449Z,15.28
2023-02-19T15:05:02.102Z,15.86
2023-02-19T15:07:31.601Z,15.19
2023-02-19T15:10:05.667Z,13.48
2023-02-19T15:12:59.338Z,14.45
2023-02-19T15:15:28.023Z,15.37
2023-02-19T15:17:55.402Z,15.53
2023-02-19T15:20:45.337Z,15.54
2023-02-19T15:23:17.049Z,16.12
2023-02-19T15:25:45.450Z,15.36
2023-02-19T15:28:39.424Z,15.84
2023-02-19T15:31:06.644Z,15.49
2023-02-19T15:33:33.553Z,13.91
2023-02-19T15:36:03.106Z,13.30
2023-02-19T15:38:30.854Z,12.94
2023-02-19T15:40:57.901Z,12.64
2023-02-19T15:43:32.653Z,12.57
2023-02-19T15:46:16.365Z,12.56
2023-02-19T15:48:56.543Z,12.37
2023-02-19T15:52:00.474Z,12.16
2023-02-19T15:54:33.311Z,11.91
2023-02-19T15:57:03.378Z,11.45
2023-02-19T15:59:38.546Z,11.63
2023-02-19T16:02:06.221Z,11.59
2023-02-19T16:04:33.958Z,11.57
2023-02-19T16:07:01.872Z,11.43
2023-02-19T16:09:38.557Z,11.52
2023-02-19T16:12:25.584Z,11.30
2023-02-19T16:14:52.321Z,10.83
2023-02-19T16:17:21.857Z,10.89
2023-02-19T16:19:54.688Z,10.50
2023-02-19T16:22:23.720Z,10.52
2023-02-19T16:24:55.549Z,10.44
2023-02-19T16:27:36.166Z,10.44
2023-02-19T16:30:25.777Z,10.26
2023-02-19T16:33:29.590Z,10.18
2023-02-19T16:36:16.156Z,10.06
2023-02-19T16:39:06.836Z,9.89
2023-02-19T16:41:34.496Z,9.97
2023-02-19T16:44:01.218Z,9.69
2023-02-19T16:46:27.897Z,9.55
2023-02-19T16:48:57.254Z,9.38
2023-02-19T16:51:25.328Z,9.26
2023-02-19T16:53:52.466Z,9.20
2023-02-19T16:56:19.954Z,9.09
2023-02-19T16:58:46.791Z,9.00
2023-02-19T17:01:13.915Z,8.97
2023-02-19T17:03:41.155Z,8.81
2023-02-19T17:06:07.860Z,8.78
2023-02-19T17:08:52.130Z,8.62
2023-02-19T17:11:18.923Z,8.59
2023-02-19T17:13:46.421Z,8.48
2023-02-19T17:16:20.885Z,8.42
2023-02-19T17:18:47.651Z,8.35
2023-02-19T17:21:28.905Z,8.38
2023-02-19T17:23:56.145Z,8.28
2023-02-19T17:26:27.725Z,8.21
2023-02-19T17:29:17.786Z,8.22
2023-02-19T17:31:44.918Z,8.13
2023-02-19T17:34:12.607Z,8.12
2023-02-19T17:36:43.496Z,8.14
2023-02-19T17:39:12.942Z,8.03
2023-02-19T17:41:40.426Z,8.07
2023-02-19T17:44:09.042Z,7.97
2023-02-19T17:46:35.785Z,7.93
2023-02-19T17:49:02.533Z,7.88
2023-02-19T17:51:29.592Z,7.91
2023-02-19T17:53:57.016Z,7.90
2023-02-19T17:56:25.053Z,7.86
2023-02-19T17:58:52.068Z,7.85
2023-02-19T18:01:18.848Z,7.76
2023-02-19T18:03:46.365Z,7.70
2023-02-19T18:06:15.962Z,7.68
2023-02-19T18:08:50.377Z,7.69
2023-02-19T18:11:20.087Z,7.63
2023-02-19T18:13:50.727Z,7.58
2023-02-19T18:16:17.923Z,7.58
2023-02-19T18:18:47.772Z,7.57
2023-02-19T18:21:14.952Z,7.53
2023-02-19T18:23:42.552Z,7.55
2023-02-19T18:26:10.114Z,7.46
2023-02-19T18:28:41.998Z,7.40
2023-02-19T18:31:08.818Z,7.54
2023-02-19T18:33:35.958Z,7.42
2023-02-19T18:36:03.168Z,7.42
2023-02-19T18:38:32.694Z,7.34
2023-02-19T18:41:02.258Z,7.44
2023-02-19T18:43:29.423Z,7.40
2023-02-19T18:45:59.890Z,7.36
2023-02-19T18:48:27.089Z,7.34
2023-02-19T18:50:55.213Z,7.33
2023-02-19T18:53:22.616Z,7.34
2023-02-19T18:55:49.894Z,7.33
2023-02-19T18:58:17.410Z,7.27
2023-02-19T19:00:44.269Z,7.26
2023-02-19T19:03:11.018Z,7.27
2023-02-19T19:05:41.239Z,7.20
2023-02-19T19:08:07.985Z,7.10
2023-02-19T19:10:35.117Z,7.12
2023-02-19T19:13:03.626Z,7.08
2023-02-19T19:15:30.772Z,7.06
2023-02-19T19:18:02.736Z,7.08
2023-02-19T19:20:30.905Z,7.10
2023-02-19T19:22:58.001Z,7.07
2023-02-19T19:25:28.242Z,7.03
2023-02-19T19:27:55.760Z,7.11
2023-02-19T19:30:22.545Z,7.05
2023-02-19T19:32:49.702Z,7.05
2023-02-19T19:35:19.906Z,7.07
2023-02-19T19:37:46.595Z,7.08
2023-02-19T19:40:15.689Z,7.13
2023-02-19T19:42:44.503Z,7.05
2023-02-19T19:45:12.863Z,7.03
2023-02-19T19:47:39.760Z,7.06
2023-02-19T19:50:07.794Z,7.11
2023-02-19T19:52:37.361Z,7.01
2023-02-19T19:55:04.446Z,6.98
2023-02-19T19:57:32.545Z,7.05
2023-02-19T20:00:02.168Z,6.92
2023-02-19T20:02:29.277Z,6.80
2023-02-19T20:04:56.156Z,6.78
2023-02-19T20:07:22.930Z,6.87
2023-02-19T20:09:49.707Z,6.77
2023-02-19T20:12:17.088Z,6.69
2023-02-19T20:14:48.307Z,6.75
2023-02-19T20:17:15.107Z,6.75
2023-02-19T20:19:42.206Z,6.61
2023-02-19T20:22:11.654Z,6.58
2023-02-19T20:24:39.684Z,6.52
2023-02-19T20:27:06.367Z,6.55
2023-02-19T20:29:33.873Z,6.50
2023-02-19T20:32:00.746Z,6.66
2023-02-19T20:34:28.051Z,6.66
2023-02-19T20:36:54.880Z,6.62
2023-02-19T20:39:23.101Z,6.61
2023-02-19T20:41:50.931Z,6.60
2023-02-19T20:44:18.195Z,6.59
2023-02-19T20:46:45.930Z,6.64
2023-02-19T20:49:13.816Z,6.49
2023-02-19T20:51:44.865Z,6.45
2023-02-19T20:54:11.611Z,6.50
2023-02-19T20:56:43.295Z,6.47
2023-02-19T20:59:10.388Z,6.45
2023-02-19T21:01:38.779Z,6.55
2023-02-19T21:04:05.618Z,6.47
2023-02-19T21:06:33.615Z,6.46
2023-02-19T21:09:00.482Z,6.44
2023-02-19T21:11:27.302Z,6.56
2023-02-19T21:13:54.736Z,6.40
2023-02-19T21:16:21.912Z,6.50
2023-02-19T21:18:49.713Z,6.53
2023-02-19T21:21:20.313Z,6.41
2023-02-19T21:23:48.381Z,6.36
2023-02-19T21:26:15.086Z,6.33
2023-02-19T21:28:42.468Z,6.34
2023-02-19T21:31:09.753Z,6.27
2023-02-19T21:33:36.479Z,6.24
2023-02-19T21:36:04.212Z,6.21
2023-02-19T21:38:33.716Z,6.15
2023-02-19T21:41:07.173Z,6.09
2023-02-19T21:43:33.851Z,5.98
2023-02-19T21:46:03.780Z,5.99
2023-02-19T21:48:30.821Z,5.94
2023-02-19T21:50:57.716Z,5.94
2023-02-19T21:53:24.392Z,5.99
2023-02-19T21:55:58.731Z,5.95
2023-02-19T21:58:26.568Z,5.92
2023-02-19T22:00:53.419Z,5.92
2023-02-19T22:03:20.466Z,5.88
2023-02-19T22:05:47.417Z,5.88
2023-02-19T22:08:14.348Z,5.90
2023-02-19T22:10:41.081Z,5.92
2023-02-19T22:13:08.231Z,5.93
2023-02-19T22:15:36.014Z,5.97
2023-02-19T22:18:02.697Z,5.94
2023-02-19T22:20:29.599Z,5.96
2023-02-19T22:22:57.583Z,6.03
2023-02-19T22:25:24.298Z,6.03
2023-02-19T22:27:51.690Z,6.02
2023-02-19T22:30:18.610Z,6.02
2023-02-19T22:32:46.742Z,6.07
2023-02-19T22:35:15.762Z,6.06
2023-02-19T22:37:42.885Z,6.06
2023-02-19T22:40:22.578Z,6.08
2023-02-19T22:42:49.251Z,6.13
2023-02-19T22:45:16.100Z,6.13
2023-02-19T22:47:42.846Z,6.13
2023-02-19T22:50:19.677Z,6.13
2023-02-19T22:52:46.625Z,6.08
2023-02-19T22:55:13.386Z,6.03
2023-02-19T22:57:40.110Z,6.03
2023-02-19T23:00:15.283Z,5.96
2023-02-19T23:02:41.995Z,6.04
2023-02-19T23:05:09.037Z,5.97
2023-02-19T23:07:36.928Z,5.96
2023-02-19T23:10:05.823Z,6.02
2023-02-19T23:12:36.180Z,6.02
2023-02-19T23:15:05.842Z,5.97
2023-02-19T23:17:33.834Z,5.94
2023-02-19T23:20:00.908Z,5.92
2023-02-19T23:22:28.576Z,5.91
2023-02-19T23:24:55.949Z,5.84
2023-02-19T23:27:22.727Z,5.86
2023-02-19T23:29:49.475Z,5.80
2023-02-19T23:32:16.159Z,5.78
2023-02-19T23:34:42.858Z,5.78
2023-02-19T23:37:10.013Z,5.78
2023-02-19T23:39:37.226Z,5.73
2023-02-19T23:42:05.185Z,5.71
2023-02-19T23:44:33.613Z,5.70
2023-02-19T23:47:00.341Z,5.71
2023-02-19T23:49:28.509Z,5.66
2023-02-19T23:51:55.549Z,5.76
2023-02-19T23:54:24.991Z,5.76
2023-02-19T23:56:52.938Z,5.77
2023-02-19T23:59:19.664Z,5.81
